Terminal Aerodrome Forecast
Issued by NWS Sterling, VA

Home | Current Version | Previous Version | Text Only | Print | Product List | Glossary On
Versions: 1 2 3 4 5 6 7 8 9 10 11 12 13 14 15
000
FTUS41 KLWX 021736
TAFMRB
TAF
KMRB 021736Z 0218/0318 30017G25KT P6SM FEW200
     FM022300 31008KT P6SM BKN200
     FM031600 14005KT 4SM -SN OVC050=

USA.gov is the U.S. government's official web portal to all federal, state and local government web resources and services.